Time;durP1;ratioP1;P1;durP2;ratioP2;P2;SDS_P1;SDS_P2;PMS_P1;PMS_P2;Temp;Humidity;BMP_temperature;BMP_pressure;BME280_temperature;BME280_humidity;BME280_pressure;Samples;Min_cycle;Max_cycle;Signal;HPM_P1;HPM_P2
2024/03/11 00:01:12;;;;;;;;;;;;;;;22.55;46.06;92691.75;5089537;28;9477;-66
2024/03/11 00:03:51;;;;;;;;;;;;;;;22.53;46.31;92703.97;5022982;28;9051;-66
2024/03/11 00:06:57;;;;;;;;;;;;;;;22.54;46.21;92704.72;5030765;28;9178;-60
2024/03/11 00:09:44;;;;;;;;;;;;;;;22.52;45.56;92707.97;4938435;28;8911;-60
2024/03/11 00:12:10;;;;;;;;;;;;;;;22.44;45.98;92692.72;4940860;28;7181;-60
2024/03/11 00:14:40;;;;;;;;;;;;;;;22.51;46.08;92716.72;4948018;28;8885;-58
2024/03/11 00:17:08;;;;;;;;;;;;;;;22.48;46.30;92709.56;4949833;28;7558;-58
2024/03/11 00:19:36;;;;;;;;;;;;;;;22.48;45.96;92717.78;4943036;28;7205;-58
2024/03/11 00:22:18;;;;;;;;;;;;;;;22.45;46.08;92710.63;4943585;28;7105;-58
2024/03/11 00:24:47;;;;;;;;;;;;;;;22.48;45.75;92717.78;4919839;28;7049;-59
2024/03/11 00:27:17;;;;;;;;;;;;;;;22.47;46.08;92719.78;4947415;28;7277;-58
2024/03/11 00:29:51;;;;;;;;;;;;;;;22.43;46.26;92716.63;4948355;28;7052;-58
2024/03/11 00:32:24;;;;;;;;;;;;;;;22.49;46.11;92732.94;4953637;28;7050;-58
2024/03/11 00:35:10;;;;;;;;;;;;;;;22.46;45.87;92734.03;4953315;28;7035;-58
2024/03/11 00:37:36;;;;;;;;;;;;;;;22.46;45.82;92736.75;4952259;28;7215;-58
2024/03/11 00:40:18;;;;;;;;;;;;;;;22.45;46.14;92736.03;4995227;28;9110;-58
2024/03/11 00:42:46;;;;;;;;;;;;;;;22.45;46.45;92738.75;5014166;28;7412;-58
2024/03/11 00:45:31;;;;;;;;;;;;;;;22.41;45.91;92732.13;5077362;28;7290;-58
2024/03/11 00:48:36;;;;;;;;;;;;;;;22.44;46.27;92731.06;5069629;28;9235;-58
2024/03/11 00:51:04;;;;;;;;;;;;;;;22.44;46.27;92739.28;5033122;28;8960;-58
2024/03/11 00:53:34;;;;;;;;;;;;;;;22.44;45.84;92736.56;4999040;28;7027;-58
2024/03/11 00:56:13;;;;;;;;;;;;;;;22.40;46.21;92738.88;5032169;28;8828;-58
2024/03/11 00:58:43;;;;;;;;;;;;;;;22.36;46.27;92738.44;5010423;28;9317;-58
2024/03/11 01:01:13;;;;;;;;;;;;;;;22.43;45.46;92752.25;4996719;28;7220;-58
2024/03/11 01:03:49;;;;;;;;;;;;;;;22.45;46.18;92757.19;5031549;28;7048;-58
2024/03/11 01:06:34;;;;;;;;;;;;;;;22.43;46.03;92749.50;5031902;28;9113;-58
2024/03/11 01:09:00;;;;;;;;;;;;;;;22.36;45.94;92743.91;5026460;28;7099;-58
2024/03/11 01:11:28;;;;;;;;;;;;;;;22.41;45.71;92765.75;5032146;28;9193;-58
2024/03/11 01:14:23;;;;;;;;;;;;;;;22.40;45.98;92758.06;5021212;28;9131;-58
2024/03/11 01:16:49;;;;;;;;;;;;;;;22.42;45.99;92761.00;4989477;28;9413;-58
2024/03/11 01:19:18;;;;;;;;;;;;;;;22.40;45.93;92758.78;4992081;28;7279;-58
2024/03/11 01:21:51;;;;;;;;;;;;;;;22.33;46.03;92753.97;4992540;28;9130;-58
2024/03/11 01:24:20;;;;;;;;;;;;;;;22.35;45.95;92761.63;4999307;28;7655;-58
2024/03/11 01:26:47;;;;;;;;;;;;;;;22.38;45.80;92777.75;5020847;28;7101;-58
2024/03/11 01:29:17;;;;;;;;;;;;;;;22.37;45.83;92781.03;5036374;28;7283;-58
2024/03/11 01:31:45;;;;;;;;;;;;;;;22.31;45.96;92766.69;5028892;28;7269;-58
2024/03/11 01:34:13;;;;;;;;;;;;;;;22.29;45.97;92758.28;5030202;28;7371;-58
2024/03/11 01:36:39;;;;;;;;;;;;;;;22.34;46.18;92760.88;5014938;28;6966;-67
2024/03/11 01:39:12;;;;;;;;;;;;;;;22.41;45.92;92767.72;5014641;28;7044;-67
2024/03/11 01:41:53;;;;;;;;;;;;;;;22.40;45.89;92769.72;5011685;28;7592;-67
2024/03/11 01:44:31;;;;;;;;;;;;;;;22.38;45.90;92777.00;5013605;28;8278;-67
2024/03/11 01:47:21;;;;;;;;;;;;;;;22.40;45.71;92782.72;5030958;28;9653;-68
2024/03/11 01:50:13;;;;;;;;;;;;;;;22.42;45.61;92782.91;5031429;28;7854;-68
2024/03/11 01:53:03;;;;;;;;;;;;;;;22.35;45.76;92772.59;5041773;28;7358;-68
2024/03/11 01:55:31;;;;;;;;;;;;;;;22.36;46.03;92774.78;5056980;28;7226;-68
2024/03/11 01:58:03;;;;;;;;;;;;;;;22.40;45.81;92779.97;5087850;28;9501;-67
2024/03/11 02:00:29;;;;;;;;;;;;;;;22.38;46.01;92782.47;5091150;28;7067;-67
2024/03/11 02:02:56;;;;;;;;;;;;;;;22.33;45.92;92764.16;5067254;28;9514;-67
2024/03/11 02:05:40;;;;;;;;;;;;;;;22.37;45.47;92770.06;5081371;28;7292;-67
2024/03/11 02:08:15;;;;;;;;;;;;;;;22.41;45.79;92776.69;5067957;28;7056;-67
2024/03/11 02:11:09;;;;;;;;;;;;;;;22.42;45.92;92767.19;5076077;28;6980;-67
2024/03/11 02:13:44;;;;;;;;;;;;;;;22.41;45.44;92775.94;5022655;28;7042;-68
2024/03/11 02:16:11;;;;;;;;;;;;;;;22.39;45.67;92762.06;5031261;28;9039;-66
2024/03/11 02:18:37;;;;;;;;;;;;;;;22.40;45.73;92767.00;5034238;28;7013;-66
2024/03/11 02:21:06;;;;;;;;;;;;;;;22.42;45.92;92771.97;5025179;28;8943;-66
2024/03/11 02:23:43;;;;;;;;;;;;;;;22.39;46.01;92768.28;5019152;28;6998;-66
2024/03/11 02:26:28;;;;;;;;;;;;;;;22.39;45.74;92767.53;5034881;28;6932;-66
2024/03/11 02:29:03;;;;;;;;;;;;;;;22.39;45.53;92771.00;5034346;28;7026;-66
2024/03/11 02:31:33;;;;;;;;;;;;;;;22.40;45.65;92772.47;5029218;28;7256;-66
2024/03/11 02:34:33;;;;;;;;;;;;;;;22.38;45.64;92772.25;5034526;28;7159;-66
2024/03/11 02:37:01;;;;;;;;;;;;;;;22.40;45.66;92771.75;4975036;28;7031;-66
2024/03/11 02:39:33;;;;;;;;;;;;;;;22.38;45.63;92769.53;4959500;28;8041;-66
2024/03/11 02:42:15;;;;;;;;;;;;;;;22.36;45.75;92763.09;4975886;28;9274;-66
2024/03/11 02:45:11;;;;;;;;;;;;;;;22.42;45.42;92777.44;4957889;28;7389;-59
2024/03/11 02:47:57;;;;;;;;;;;;;;;22.41;45.40;92781.44;4959147;28;8929;-58
2024/03/11 02:50:23;;;;;;;;;;;;;;;22.33;45.45;92775.88;4994629;28;7491;-58
2024/03/11 02:52:56;;;;;;;;;;;;;;;22.33;45.38;92781.34;4997871;28;7261;-58
2024/03/11 02:55:32;;;;;;;;;;;;;;;22.33;45.47;92777.88;4997739;28;7041;-58
2024/03/11 03:01:29;;;;;;;;;;;;;;;22.38;45.71;92785.22;4926119;28;7464;-58
2024/03/11 03:04:05;;;;;;;;;;;;;;;22.38;45.35;92793.44;4901995;29;9427;-57
2024/03/11 03:06:48;;;;;;;;;;;;;;;22.38;45.64;92787.94;4927677;28;7459;-58
2024/03/11 03:09:36;;;;;;;;;;;;;;;22.39;45.26;92797.66;4941495;28;7470;-58
2024/03/11 03:12:22;;;;;;;;;;;;;;;22.34;45.51;92782.06;4925283;28;7129;-58
2024/03/11 03:14:47;;;;;;;;;;;;;;;22.40;45.35;92797.13;4969201;28;7787;-58
2024/03/11 03:17:13;;;;;;;;;;;;;;;22.40;45.58;92801.88;4944984;28;7376;-58
2024/03/11 03:19:39;;;;;;;;;;;;;;;22.37;45.54;92791.97;4965439;28;7262;-58
2024/03/11 03:22:13;;;;;;;;;;;;;;;22.35;45.18;92787.03;4978416;28;7671;-58
2024/03/11 03:24:51;;;;;;;;;;;;;;;22.42;45.64;92799.34;4962883;28;8986;-58
2024/03/11 03:27:27;;;;;;;;;;;;;;;22.37;45.44;92791.97;4980592;28;6868;-58
2024/03/11 03:30:03;;;;;;;;;;;;;;;22.34;45.52;92790.28;4965702;28;7054;-58
2024/03/11 03:32:29;;;;;;;;;;;;;;;22.35;45.29;92794.50;4967721;28;7056;-58
2024/03/11 03:35:15;;;;;;;;;;;;;;;22.39;45.47;92805.88;4972829;28;7647;-58
2024/03/11 03:37:59;;;;;;;;;;;;;;;22.38;45.43;92807.13;4984931;28;9185;-58
2024/03/11 03:40:44;;;;;;;;;;;;;;;22.37;45.56;92811.88;5084010;28;7320;-58
2024/03/11 03:43:12;;;;;;;;;;;;;;;22.32;45.61;92807.25;5073804;28;8041;-58
2024/03/11 03:46:17;;;;;;;;;;;;;;;22.38;45.35;92810.63;5085119;28;7850;-58
2024/03/11 03:48:56;;;;;;;;;;;;;;;22.35;45.28;92816.41;4999881;28;8227;-58
2024/03/11 03:51:41;;;;;;;;;;;;;;;22.35;45.46;92802.72;5016997;28;7073;-58
2024/03/11 03:54:32;;;;;;;;;;;;;;;22.38;45.56;92815.34;5029334;28;6873;-58
2024/03/11 03:57:15;;;;;;;;;;;;;;;22.26;45.60;92801.16;4996517;28;7471;-58
2024/03/11 03:59:43;;;;;;;;;;;;;;;22.35;45.62;92821.91;5012903;28;7510;-58
2024/03/11 04:02:25;;;;;;;;;;;;;;;22.33;45.24;92825.16;5019491;28;7305;-58
2024/03/11 04:05:26;;;;;;;;;;;;;;;22.35;45.16;92819.16;5008216;28;7241;-57
2024/03/11 04:08:23;;;;;;;;;;;;;;;22.37;45.57;92813.88;4992635;28;7055;-58
2024/03/11 04:11:05;;;;;;;;;;;;;;;22.31;45.30;92805.03;4973965;28;7020;-57
2024/03/11 04:13:37;;;;;;;;;;;;;;;22.34;45.08;92814.94;4980680;28;7107;-58
2024/03/11 04:16:04;;;;;;;;;;;;;;;22.35;45.35;92816.41;4980878;28;7703;-57
2024/03/11 04:18:30;;;;;;;;;;;;;;;22.36;45.14;92826.09;4981286;28;7272;-58
2024/03/11 04:20:56;;;;;;;;;;;;;;;22.28;45.47;92811.56;4987601;28;7293;-57
2024/03/11 04:23:26;;;;;;;;;;;;;;;22.23;45.23;92799.44;5033332;28;7032;-58
2024/03/11 04:26:11;;;;;;;;;;;;;;;22.32;45.75;92822.94;5058603;28;7056;-58
2024/03/11 04:28:46;;;;;;;;;;;;;;;22.29;45.49;92813.06;5041541;28;9105;-57
2024/03/11 04:31:35;;;;;;;;;;;;;;;22.29;45.35;92807.56;5060094;28;9160;-58
2024/03/11 04:34:02;;;;;;;;;;;;;;;22.34;45.01;92823.16;5055215;28;6896;-58
2024/03/11 04:36:41;;;;;;;;;;;;;;;22.35;45.45;92821.91;5054721;28;6995;-58
2024/03/11 04:39:16;;;;;;;;;;;;;;;22.33;45.45;92818.94;5071609;28;9092;-58
2024/03/11 04:41:42;;;;;;;;;;;;;;;22.35;45.48;92821.91;5071890;28;9011;-58
2024/03/11 04:44:19;;;;;;;;;;;;;;;22.30;45.22;92817.25;5069329;28;7244;-58
2024/03/11 04:46:59;;;;;;;;;;;;;;;22.36;45.35;92826.84;5061577;28;7339;-58
2024/03/11 04:49:31;;;;;;;;;;;;;;;22.26;45.24;92811.34;5074933;28;7608;-57
2024/03/11 04:52:08;;;;;;;;;;;;;;;22.26;45.23;92808.63;5080558;28;7831;-57
2024/03/11 04:54:49;;;;;;;;;;;;;;;22.23;45.25;92818.63;5080422;28;9407;-57
2024/03/11 04:57:15;;;;;;;;;;;;;;;22.28;44.97;92822.53;5077082;28;9705;-57
2024/03/11 04:59:53;;;;;;;;;;;;;;;22.31;45.26;92833.19;5092958;28;7280;-57
2024/03/11 05:02:47;;;;;;;;;;;;;;;22.30;45.38;92842.66;5060388;28;8968;-57
2024/03/11 05:05:24;;;;;;;;;;;;;;;22.29;45.61;92841.16;5085167;28;9050;-66
2024/03/11 05:07:54;;;;;;;;;;;;;;;22.28;45.12;92836.97;5080699;28;9403;-66
2024/03/11 05:10:20;;;;;;;;;;;;;;;22.28;45.49;92838.94;5071139;28;8566;-66
2024/03/11 05:12:49;;;;;;;;;;;;;;;22.28;45.52;92838.94;5082368;28;7006;-66
2024/03/11 05:15:18;;;;;;;;;;;;;;;22.21;45.35;92831.34;5079331;28;7606;-66
2024/03/11 05:17:45;;;;;;;;;;;;;;;22.25;45.39;92842.75;5080519;28;7183;-66
2024/03/11 05:20:14;;;;;;;;;;;;;;;22.28;45.24;92849.91;5063494;28;7653;-66
2024/03/11 05:22:49;;;;;;;;;;;;;;;22.27;45.35;92849.16;5068780;28;7260;-65
2024/03/11 05:25:15;;;;;;;;;;;;;;;22.27;45.45;92851.91;5080473;28;8066;-66
2024/03/11 05:27:46;;;;;;;;;;;;;;;22.29;45.46;92862.34;5076593;28;7767;-65
2024/03/11 05:30:29;;;;;;;;;;;;;;;22.27;47.05;92851.19;5083276;28;7260;-65
2024/03/11 05:32:55;;;;;;;;;;;;;;;22.47;48.30;92866.97;5068660;28;6952;-66
2024/03/11 05:35:27;;;;;;;;;;;;;;;22.65;55.81;92876.38;5091018;28;8790;-66
2024/03/11 05:37:55;;;;;;;;;;;;;;;23.03;54.79;92872.88;5079925;28;8749;-66
2024/03/11 05:40:24;;;;;;;;;;;;;;;23.31;53.21;92874.31;5072913;28;7057;-65
2024/03/11 05:43:00;;;;;;;;;;;;;;;23.61;53.91;92888.38;5074249;28;9378;-64
2024/03/11 05:45:26;;;;;;;;;;;;;;;23.79;51.80;92896.41;5054278;28;9067;-63
2024/03/11 05:47:54;;;;;;;;;;;;;;;23.89;52.13;92893.94;5071723;28;7009;-66
2024/03/11 05:50:20;;;;;;;;;;;;;;;23.92;45.94;92890.88;5078121;28;7284;-66
2024/03/11 05:52:48;;;;;;;;;;;;;;;23.80;44.09;92875.19;5077370;28;9293;-66
2024/03/11 05:55:22;;;;;;;;;;;;;;;23.32;44.37;92889.47;5068459;28;7025;-65
2024/03/11 05:57:51;;;;;;;;;;;;;;;22.96;44.83;92905.69;5088569;28;9024;-65
2024/03/11 06:00:17;;;;;;;;;;;;;;;22.76;45.23;92904.34;5073973;28;7333;-64
2024/03/11 06:02:45;;;;;;;;;;;;;;;22.67;46.00;92910.22;5071452;28;7678;-61
2024/03/11 06:05:21;;;;;;;;;;;;;;;22.60;46.23;92905.38;5093555;28;9012;-60
2024/03/11 06:07:47;;;;;;;;;;;;;;;22.59;46.62;92909.38;5079772;28;7403;-61
2024/03/11 06:10:16;;;;;;;;;;;;;;;22.53;45.99;92912.19;5093784;28;9407;-60
2024/03/11 06:12:44;;;;;;;;;;;;;;;22.57;46.87;92919.38;5070047;28;8312;-60
2024/03/11 06:15:12;;;;;;;;;;;;;;;22.58;46.91;92929.78;5087740;28;7034;-61
2024/03/11 06:17:43;;;;;;;;;;;;;;;22.57;46.79;92928.34;5094338;28;7107;-61
2024/03/11 06:20:09;;;;;;;;;;;;;;;22.53;46.70;92920.41;5094580;28;7683;-60
2024/03/11 06:22:42;;;;;;;;;;;;;;;22.57;47.02;92931.06;5096886;28;7253;-60
2024/03/11 06:25:23;;;;;;;;;;;;;;;22.53;46.68;92925.16;5075947;28;9360;-60
2024/03/11 06:27:51;;;;;;;;;;;;;;;22.54;46.27;92926.63;5074336;28;8715;-60
2024/03/11 06:30:18;;;;;;;;;;;;;;;22.50;46.40;92923.47;5086436;28;9727;-60
2024/03/11 06:32:59;;;;;;;;;;;;;;;22.43;43.42;92922.09;5084590;28;6873;-60
2024/03/11 06:35:25;;;;;;;;;;;;;;;22.26;43.02;92929.13;5072168;28;9637;-64
2024/03/11 06:38:17;;;;;;;;;;;;;;;22.17;45.40;92943.22;5072988;28;9892;-65
2024/03/11 06:40:56;;;;;;;;;;;;;;;22.13;45.59;92938.03;5016453;28;8475;-64
2024/03/11 06:43:26;;;;;;;;;;;;;;;22.24;45.53;92942.59;5037996;28;7935;-65
2024/03/11 06:45:53;;;;;;;;;;;;;;;22.24;45.70;92948.81;5022598;28;7233;-64
2024/03/11 06:48:19;;;;;;;;;;;;;;;22.27;46.07;92964.19;5020002;28;7967;-61
2024/03/11 06:50:55;;;;;;;;;;;;;;;22.30;45.98;92967.88;5023146;28;7315;-60
2024/03/11 06:53:22;;;;;;;;;;;;;;;22.34;46.01;92969.06;5045704;28;8647;-60
2024/03/11 06:55:54;;;;;;;;;;;;;;;22.41;46.08;92976.66;5042794;28;9155;-60
2024/03/11 06:58:20;;;;;;;;;;;;;;;22.48;46.20;92986.28;5038821;28;7003;-60
2024/03/11 07:00:48;;;;;;;;;;;;;;;22.51;46.18;92985.22;5041361;28;8782;-60
2024/03/11 07:03:29;;;;;;;;;;;;;;;22.62;45.82;92993.28;5037657;28;7026;-60
2024/03/11 07:06:15;;;;;;;;;;;;;;;22.70;46.42;93005.09;5037045;28;7026;-60
2024/03/11 07:08:41;;;;;;;;;;;;;;;22.74;45.97;92999.31;5033688;28;7059;-60
2024/03/11 07:11:09;;;;;;;;;;;;;;;22.82;45.84;93000.16;5038839;28;7031;-60
2024/03/11 07:13:46;;;;;;;;;;;;;;;22.89;45.62;93005.00;5033192;28;6955;-60
2024/03/11 07:16:12;;;;;;;;;;;;;;;22.93;45.61;93006.19;5033512;28;7631;-65
2024/03/11 07:18:43;;;;;;;;;;;;;;;22.95;46.15;93017.34;5075701;28;6999;-65
2024/03/11 07:21:11;;;;;;;;;;;;;;;22.98;45.49;93012.84;5079385;28;6998;-65
2024/03/11 07:23:43;;;;;;;;;;;;;;;23.02;45.39;93013.25;5078063;28;9057;-65
2024/03/11 07:26:29;;;;;;;;;;;;;;;23.07;45.15;93026.88;5070644;28;7037;-65
2024/03/11 07:28:57;;;;;;;;;;;;;;;23.08;45.48;93028.34;5082384;28;7248;-63
2024/03/11 07:31:30;;;;;;;;;;;;;;;23.07;45.50;93021.38;5086367;28;7365;-65
2024/03/11 07:33:57;;;;;;;;;;;;;;;23.10;45.35;93036.78;5073195;28;8951;-65
2024/03/11 07:36:30;;;;;;;;;;;;;;;23.09;45.20;93040.78;5086580;28;8945;-65
2024/03/11 07:38:57;;;;;;;;;;;;;;;23.10;45.33;93047.75;5083707;28;7029;-65
2024/03/11 07:41:59;;;;;;;;;;;;;;;23.11;45.24;93043.00;5084084;28;8200;-65
2024/03/11 07:44:38;;;;;;;;;;;;;;;23.04;45.22;93038.88;5094832;28;7280;-64
2024/03/11 07:47:07;;;;;;;;;;;;;;;23.08;45.35;93050.28;5092066;28;7576;-65
2024/03/11 07:49:35;;;;;;;;;;;;;;;23.08;45.25;93052.28;5072480;28;7448;-65
2024/03/11 07:52:16;;;;;;;;;;;;;;;23.01;45.26;93056.38;5085331;28;7603;-65
2024/03/11 07:54:46;;;;;;;;;;;;;;;22.99;45.59;93053.44;5079882;28;7034;-65
2024/03/11 07:57:19;;;;;;;;;;;;;;;23.05;45.11;93067.78;5095061;28;7279;-65
2024/03/11 07:59:47;;;;;;;;;;;;;;;23.01;45.70;93055.66;5095589;28;7323;-65
2024/03/11 08:02:20;;;;;;;;;;;;;;;23.01;45.48;93061.88;5082532;28;9191;-65
2024/03/11 08:04:49;;;;;;;;;;;;;;;23.00;45.83;93060.41;5095179;28;6962;-65
2024/03/11 08:07:34;;;;;;;;;;;;;;;23.02;46.24;93063.34;5067049;28;7149;-65
2024/03/11 08:10:12;;;;;;;;;;;;;;;22.97;45.88;93060.69;5082340;28;6936;-64
2024/03/11 08:12:39;;;;;;;;;;;;;;;23.01;46.35;93078.31;5075960;28;7058;-65
2024/03/11 08:15:07;;;;;;;;;;;;;;;23.01;46.38;93072.84;5068899;28;7286;-65
2024/03/11 08:17:34;;;;;;;;;;;;;;;23.04;46.23;93077.28;5075586;28;7019;-64
2024/03/11 08:20:04;;;;;;;;;;;;;;;23.08;44.27;93082.44;5062771;28;7303;-65
2024/03/11 08:22:42;;;;;;;;;;;;;;;23.15;43.40;93073.59;5076835;28;7155;-65
2024/03/11 08:25:27;;;;;;;;;;;;;;;23.33;43.38;93086.53;5077152;28;7007;-60
2024/03/11 08:27:54;;;;;;;;;;;;;;;23.46;44.15;93083.03;5085504;28;7202;-59
2024/03/11 08:30:23;;;;;;;;;;;;;;;23.60;44.04;93092.72;5083349;28;9451;-60
2024/03/11 08:32:50;;;;;;;;;;;;;;;23.71;43.38;93092.50;5060811;28;7214;-60
2024/03/11 08:35:23;;;;;;;;;;;;;;;23.80;43.69;93098.31;5071056;28;7034;-59
2024/03/11 08:37:53;;;;;;;;;;;;;;;23.89;43.54;93105.38;5079210;28;7433;-60
2024/03/11 08:40:38;;;;;;;;;;;;;;;23.90;43.43;93090.41;5074732;28;9092;-60
2024/03/11 08:43:19;;;;;;;;;;;;;;;24.02;42.63;93097.13;5093960;28;7266;-59
2024/03/11 08:45:47;;;;;;;;;;;;;;;24.03;43.20;93093.13;5076759;28;7094;-60
2024/03/11 08:49:05;;;;;;;;;;;;;;;24.09;42.83;93101.25;5077112;28;7605;-60
2024/03/11 08:52:17;;;;;;;;;;;;;;;24.12;42.52;93092.69;5081789;28;7219;-60
2024/03/11 08:54:53;;;;;;;;;;;;;;;24.13;43.11;93098.94;5011535;28;7313;-59
2024/03/11 08:57:21;;;;;;;;;;;;;;;24.13;43.40;93088.69;4994157;28;9404;-60
2024/03/11 08:59:54;;;;;;;;;;;;;;;24.16;43.30;93098.63;5010657;28;7027;-60
2024/03/11 09:02:35;;;;;;;;;;;;;;;24.07;42.98;93088.06;4992684;28;9436;-59
2024/03/11 09:05:17;;;;;;;;;;;;;;;24.17;43.37;93097.34;4999776;28;7288;-60
2024/03/11 09:07:45;;;;;;;;;;;;;;;24.18;43.03;93100.81;5006491;28;7078;-59
2024/03/11 09:10:27;;;;;;;;;;;;;;;24.15;43.09;93102.63;4993367;28;7105;-59
2024/03/11 09:12:58;;;;;;;;;;;;;;;24.18;42.86;93114.56;4992610;28;9597;-59
2024/03/11 09:15:24;;;;;;;;;;;;;;;24.16;43.12;93115.09;5013272;28;7301;-60
2024/03/11 09:17:51;;;;;;;;;;;;;;;24.20;42.73;93115.50;5017538;28;7123;-59
2024/03/11 09:20:20;;;;;;;;;;;;;;;24.19;42.57;93116.78;5013674;28;7842;-59
2024/03/11 09:22:49;;;;;;;;;;;;;;;24.20;42.68;93112.75;5019794;28;7299;-59
2024/03/11 09:25:30;;;;;;;;;;;;;;;24.15;43.02;93107.38;5022649;28;7126;-60
2024/03/11 09:28:01;;;;;;;;;;;;;;;24.17;43.09;93105.56;5008337;28;7057;-59
2024/03/11 09:30:35;;;;;;;;;;;;;;;24.22;42.82;93112.22;5028547;28;8691;-60
2024/03/11 09:33:08;;;;;;;;;;;;;;;24.25;43.17;93119.41;5088227;28;7276;-59
2024/03/11 09:35:34;;;;;;;;;;;;;;;24.20;43.31;93115.50;5085887;28;7121;-64
2024/03/11 09:38:02;;;;;;;;;;;;;;;24.26;43.55;93118.13;5086848;28;7005;-64
2024/03/11 09:40:31;;;;;;;;;;;;;;;24.21;43.13;93111.47;5076793;28;9513;-64
2024/03/11 09:43:01;;;;;;;;;;;;;;;24.21;42.74;93103.22;5094794;28;7115;-64
2024/03/11 09:45:34;;;;;;;;;;;;;;;24.22;43.39;93107.47;5083605;28;7476;-63
2024/03/11 09:48:17;;;;;;;;;;;;;;;24.27;42.68;93109.34;5084419;28;8745;-63
2024/03/11 09:50:57;;;;;;;;;;;;;;;24.25;42.67;93103.66;5079427;28;7460;-63
2024/03/11 09:53:40;;;;;;;;;;;;;;;24.30;43.09;93119.28;5089284;28;9095;-63
2024/03/11 09:56:26;;;;;;;;;;;;;;;24.32;42.41;93116.00;5069665;28;7661;-64
2024/03/11 09:58:59;;;;;;;;;;;;;;;24.31;43.21;93114.53;5089491;28;8787;-63
2024/03/11 10:01:35;;;;;;;;;;;;;;;24.33;42.64;93120.97;5076563;28;7054;-63
2024/03/11 10:04:09;;;;;;;;;;;;;;;24.33;43.22;93120.97;5076798;28;7185;-63
2024/03/11 10:07:00;;;;;;;;;;;;;;;24.34;43.31;93116.94;5075243;28;7061;-63
2024/03/11 10:09:46;;;;;;;;;;;;;;;24.33;43.07;93118.22;5075761;28;7044;-63
2024/03/11 10:12:15;;;;;;;;;;;;;;;24.28;42.85;93105.34;5076895;28;6994;-62
2024/03/11 10:14:47;;;;;;;;;;;;;;;24.30;43.63;93118.53;5083251;28;7299;-62
2024/03/11 10:17:28;;;;;;;;;;;;;;;24.31;43.57;93120.03;5089589;28;7597;-63
2024/03/11 10:20:00;;;;;;;;;;;;;;;24.27;43.21;93119.63;5076988;28;7111;-62
2024/03/11 10:22:47;;;;;;;;;;;;;;;24.29;43.40;93128.06;5071082;28;7180;-63
2024/03/11 10:25:31;;;;;;;;;;;;;;;24.26;43.52;93120.88;5078573;28;9267;-61
2024/03/11 10:28:32;;;;;;;;;;;;;;;24.19;43.17;93113.28;5088687;28;9194;-62
2024/03/11 10:31:17;;;;;;;;;;;;;;;24.21;42.93;93127.97;5084510;28;7051;-62
2024/03/11 10:33:44;;;;;;;;;;;;;;;24.15;43.44;93121.84;5097319;28;8096;-62
2024/03/11 10:36:15;;;;;;;;;;;;;;;24.12;44.03;93128.41;5096815;28;8860;-62
2024/03/11 10:42:12;;;;;;;;;;;;;;;24.17;43.08;93137.78;5088504;28;7067;-62
2024/03/11 10:44:40;;;;;;;;;;;;;;;24.05;42.84;93131.06;5073974;28;7377;-59
2024/03/11 10:47:18;;;;;;;;;;;;;;;24.06;41.76;93133.28;5067549;28;7203;-59
2024/03/11 10:49:53;;;;;;;;;;;;;;;24.11;43.62;93137.94;5085998;28;7226;-58
2024/03/11 10:52:30;;;;;;;;;;;;;;;24.12;43.89;93136.63;5069981;28;8770;-59
2024/03/11 10:55:08;;;;;;;;;;;;;;;24.13;43.21;93137.38;5094637;28;9346;-59
2024/03/11 10:57:50;;;;;;;;;;;;;;;24.13;43.89;93137.38;5062455;28;7170;-59
2024/03/11 11:03:12;;;;;;;;;;;;;;;24.15;43.92;93141.09;5083805;28;9049;-59
2024/03/11 11:06:27;;;;;;;;;;;;;;;24.15;43.91;93138.34;5089411;28;7279;-58
2024/03/11 11:08:54;;;;;;;;;;;;;;;24.10;43.51;93128.19;5082471;28;7040;-58
2024/03/11 11:11:22;;;;;;;;;;;;;;;24.16;43.42;93128.84;5089587;28;7663;-59
2024/03/11 11:13:58;;;;;;;;;;;;;;;24.15;44.16;93130.09;5075779;28;7330;-59
2024/03/11 11:16:29;;;;;;;;;;;;;;;24.13;44.00;93132.63;5081921;28;7689;-58
2024/03/11 11:18:59;;;;;;;;;;;;;;;24.17;44.23;93138.53;5076382;28;7195;-58
2024/03/11 11:21:29;;;;;;;;;;;;;;;24.18;43.88;93134.53;5071423;28;7030;-59
2024/03/11 11:24:40;;;;;;;;;;;;;;;24.18;43.45;93139.28;5081520;28;7097;-59
2024/03/11 11:27:13;;;;;;;;;;;;;;;24.19;43.90;93133.25;5076887;28;7326;-59
2024/03/11 11:29:47;;;;;;;;;;;;;;;24.16;44.04;93128.09;5084302;28;9410;-59
2024/03/11 11:32:13;;;;;;;;;;;;;;;24.22;43.99;93134.19;5095716;28;7240;-59
2024/03/11 11:34:45;;;;;;;;;;;;;;;;;;5061022;28;8726;-59
2024/03/11 11:37:33;;;;;;;;;;;;;;;;;;5084367;28;7369;-59
2024/03/11 11:40:29;;;;;;;;;;;;;;;24.26;43.61;93146.34;5089963;28;7285;-59
2024/03/11 11:43:40;;;;;;;;;;;;;;;24.27;44.01;93131.31;5060489;28;7462;-59
2024/03/11 11:46:42;;;;;;;;;;;;;;;24.27;43.90;93136.81;5057948;28;7048;-59
2024/03/11 11:49:17;;;;;;;;;;;;;;;24.22;43.90;93129.44;5082059;28;7123;-59
2024/03/11 11:51:58;;;;;;;;;;;;;;;24.31;44.03;93142.75;5065904;28;7878;-59
2024/03/11 11:54:28;;;;;;;;;;;;;;;24.26;44.04;93131.88;5093038;28;8190;-59
2024/03/11 11:57:11;;;;;;;;;;;;;;;24.32;43.38;93138.72;5082397;28;7101;-59
2024/03/11 12:00:14;;;;;;;;;;;;;;;24.33;43.96;93150.44;5090174;28;7113;-59
2024/03/11 12:02:51;;;;;;;;;;;;;;;24.33;43.41;93142.97;5036558;28;8169;-59
2024/03/11 12:05:26;;;;;;;;;;;;;;;24.32;43.46;93146.97;5051801;28;8703;-59
2024/03/11 12:07:58;;;;;;;;;;;;;;;24.29;43.94;93141.81;5043535;28;7106;-59
2024/03/11 12:10:37;;;;;;;;;;;;;;;24.28;44.01;93143.81;5032627;28;9647;-59
2024/03/11 12:13:03;;;;;;;;;;;;;;;24.29;43.41;93150.03;5050053;28;9281;-59
2024/03/11 12:15:29;;;;;;;;;;;;;;;24.34;44.02;93151.91;5041291;28;7035;-59
2024/03/11 12:17:58;;;;;;;;;;;;;;;24.35;43.31;93148.66;5048217;28;8644;-59
2024/03/11 12:22:57;;;;;;;;;;;;;;;24.36;43.58;93144.63;5046326;28;9539;-59
2024/03/11 12:25:36;;;;;;;;;;;;;;;24.32;43.51;93144.22;5021664;28;8336;-59
2024/03/11 12:28:03;;;;;;;;;;;;;;;24.31;43.32;93142.75;5051686;28;7022;-59
2024/03/11 12:30:39;;;;;;;;;;;;;;;24.33;43.37;93145.72;5035541;28;7068;-59
2024/03/11 12:33:06;;;;;;;;;;;;;;;24.39;43.27;93160.06;5032970;28;7045;-59
2024/03/11 12:35:50;;;;;;;;;;;;;;;24.40;43.71;93158.78;5051611;28;9060;-60
2024/03/11 12:38:19;;;;;;;;;;;;;;;24.41;43.37;93163.00;5081791;28;7266;-59
2024/03/11 12:40:46;;;;;;;;;;;;;;;24.42;43.51;93169.25;5076141;28;7209;-59
2024/03/11 12:43:30;;;;;;;;;;;;;;;24.38;43.95;93155.81;5071360;28;7201;-59
2024/03/11 12:46:02;;;;;;;;;;;;;;;24.41;43.80;93171.25;5070502;28;6968;-59
2024/03/11 12:48:46;;;;;;;;;;;;;;;24.44;44.34;93169.47;5073799;28;9335;-59
2024/03/11 12:51:19;;;;;;;;;;;;;;;24.45;43.98;93173.66;5076380;28;7064;-59
2024/03/11 12:54:14;;;;;;;;;;;;;;;24.42;44.67;93169.25;5067966;28;9438;-59
2024/03/11 12:56:42;;;;;;;;;;;;;;;24.36;43.72;93172.09;5090126;28;7141;-58
2024/03/11 12:59:28;;;;;;;;;;;;;;;24.39;41.61;93187.53;5059124;28;7139;-61
2024/03/11 13:02:34;;;;;;;;;;;;;;;24.40;44.01;93183.50;5090415;28;8978;-61
2024/03/11 13:05:30;;;;;;;;;;;;;;;24.41;43.97;93179.50;5031032;28;7024;-64
2024/03/11 13:08:17;;;;;;;;;;;;;;;24.42;43.47;93191.97;5030336;28;7220;-64
2024/03/11 13:10:44;;;;;;;;;;;;;;;24.44;43.73;93188.69;5000333;28;7451;-64
2024/03/11 13:13:20;;;;;;;;;;;;;;;24.45;43.80;93190.91;5028367;28;9498;-65
2024/03/11 13:15:48;;;;;;;;;;;;;;;24.44;43.43;93189.44;4990509;28;6985;-65
2024/03/11 13:18:14;;;;;;;;;;;;;;;24.44;43.38;93197.69;5026830;28;7109;-64
2024/03/11 13:20:40;;;;;;;;;;;;;;;24.39;43.36;93186.78;5028753;28;7467;-64
2024/03/11 13:23:08;;;;;;;;;;;;;;;24.46;43.39;93197.91;5020229;28;7136;-64
2024/03/11 13:25:35;;;;;;;;;;;;;;;24.46;43.61;93195.16;5015411;28;7296;-64
2024/03/11 13:28:06;;;;;;;;;;;;;;;24.42;43.69;93185.75;5027213;28;8779;-64
2024/03/11 13:30:39;;;;;;;;;;;;;;;24.46;43.74;93194.41;5022533;28;7011;-64
2024/03/11 13:33:05;;;;;;;;;;;;;;;24.44;43.40;93181.19;5022773;28;7038;-64
2024/03/11 13:35:32;;;;;;;;;;;;;;;24.49;43.55;93193.34;5029188;28;8412;-64
2024/03/11 13:38:00;;;;;;;;;;;;;;;24.50;43.86;93190.06;5017095;28;7556;-64
2024/03/11 13:40:26;;;;;;;;;;;;;;;24.45;43.48;93185.41;5076566;28;9446;-64
2024/03/11 13:42:51;;;;;;;;;;;;;;;24.52;43.54;93190.25;5065669;28;6998;-64
2024/03/11 13:45:18;;;;;;;;;;;;;;;24.53;43.12;93197.22;5062524;28;7097;-64
2024/03/11 13:47:51;;;;;;;;;;;;;;;24.51;44.15;93191.53;5066282;28;8992;-64
2024/03/11 13:50:19;;;;;;;;;;;;;;;24.48;43.56;93186.34;5070083;28;7094;-64
2024/03/11 13:52:47;;;;;;;;;;;;;;;24.46;43.93;93183.41;5073539;28;7274;-64